Gale Warning
Issued at: 05:00 AM TODAY , 25 March 2019
Gale Warning # 4 (Final)
For: STRONG TO GALE FORCE WINDS ASSOCIATED WITH SURGE OF NORTHEAST MONSOON

Gale Warning in PDF file



Weather Advisory
Issued at: 11:00 AM 2019 March 20
Weather Advisory in PDF file




General Flood Advisories - Regional
 General Flood Advisory issued as of 7 PM, 20 August 2018



Advisories


Monthly Climate Assessment and Outlook (July-August 2018)

Issued: 06 August 2018

Monthly Rainfall Forecast
RAINFALL FORECAST  (September 2018 - February 2019) 
UPDATED: 29 August 2018 (next update September 26, 2018)


Regional Rainfall Forecast
Issued: 29 August 2018
Valid for: September 2018 - February 2019
Farm Weather Forecast and Advisories
ISSUED: 8 AM,  TUESDAY, JANUARY  29, 2019
VALID UNTIL: 8 AM,  WEDNESDAY, JANUARY 30
, 2019
FWFA:  N0. 19-029

Ten-Day Regional Agri-Weather Information
DEKAD NO. 2   JANUARY 11 - 20, 2019
PHILIPPINE AGRI-WEATHER FORECAST
The weather systems that will affect the whole country are the northeast monsoon, tail-end of a cold front, low pressure area (LPA) and easterlies.

Seasonal Climate Outlook
Issued:  13 July 2018
FOR July - December 2018
PDF 




Astronomical Diary
Issue for October 2018
The October Orionids meteor shower will be active from October 17-25, 2017.




   PAGASA webmail  Learning Tools  Bidding 

  Training Activities  Vacancy  Research-and-Development

  Engineering  faqupdate  Publications 
RPLL

250500Z 2506/2612 11008KT 9999 FEW025 TX32/2506Z TN26/2521Z TEMPO 2506/2512 09014KT FEW023 SCT100 TEMPO 2516/2522 10006KT SCT023 SCT300=

RPVM

250500Z 2506/2612 03007KT 9999 FEW020 TEMPO 2506/2512 02010KT FEW020 SCT100 TEMPO 2518/2524 04005KT FEW020 BKN250= 

RPLC

250500Z 2506/2612 16008KT 9999 FEW020 SCT300 TX34/2506Z TN24/2522Z TEMPO 2506/2512 14010KT SCT020 BKN300=

RPLB

250500Z 2506/2606 08010KT 9999 FEW020 TX34/2506Z TN24/2522Z TEMPO 2506/2512 07010KT   SCT020=

RPLI

250500Z 2506/2606 07006KT 9999 FEW018 TEMPO 2506/2512 27012KT FEW017CB SCT090=

RPVP

250500Z 2506/2606 09004KT 9999 FEW019 TEMPO 2506/2512 12010KT FEW018CB FEW020 SCT080=

RPVD

250500Z 2506/2606 04006KT 9999 FEW015 TEMPO 2506/2512 07012KT SCT015TCU SCT220=

RPMR

250500Z 2506/2606 04008KT 9999 FEW018 SCT250 TEMPO 2506/2512 02012G16KT FEW015CB FEW018 BKN080=

RPMD

250500Z 2506/2606 36006KT 9999 FEW016 SCT290 TEMPO 2506/2512 02012KT FEW015CB BKN090 BKN290=

RPMZ

250500Z 2506/2606 27005KT 9999 FEW017 SCT090 TEMPO 2506/2512 VRB02KT FEW016CB BKN090=

RPLL FORECAST TAKE-OFF CONDITION
TIME

(UTC)

WIND

(dddffKT)

TEMP

(°C)

QNH

(hPa)

TIME

(UTC)

WIND

(dddffKT)

TEMP

(°C)

QNH

(hPa)

0600

11014KT

32.0

1011.0

1000

09010KT

30.0

1012.0

0700

10014KT

32.0

1010.0

1100

09009KT

29.0

1013.0

0800

10012KT

31.5

1011.0

1100

08008KT

28.0

1013.0

0900

09012KT

31.0

1011.0

1200

10008KT

27.5

1013.0

ISSUED AT NAIA AMSS-WD/PAGASA-DOST FOR 0500UTC 25 MARCH 2019
PREPARED BY:       CHH
CHECKED BY:      AYN

PUBLIC WARNING 


It has come to the attention of the Office of the Administrator of PAGASA that a certain person has been using the name of Dr. Vicente B. Malano to solicit money from the contractors of PAGASA.

Dr. Malano wishes to inform the public that he has not authorized anyone to solicit money on his behalf and to warn everyone against dealing with unscrupulous activities of certain individuals.





payong pagasa on android The latest version of the official PAGASA app can now be downloaded on Google play store

Announcement of Training
Meteorological Technicians Training Course (MTTC)
The Philippine Atmospheric, Geophysical and Astronomical Services Administration (PAGASA) is conducting a Meteorological Technicians Training Course (MTTC), which will commence on 06 May 2019.

Read more ...

Weather Division is now  ISO 9001:2015 Certified
Proof has been furnished by means of an audit that the requirements of ISO 9001:2015 are met.

Read more ...


TERMINATION OF THE NORTHEAST MONSOON

The shift of wind direction from northeasterly to easterly due to the establishment of the High Pressure Area (HPA) over the Northwestern Pacific signifies the termination of the Northeast Monsoon.

Read more ...